sensor_id;sensor_type;location;lat;lon;timestamp;pressure;altitude;pressure_sealevel;temperature;humidity
75936;BME280;64614;32.062;34.834;2023-06-14T00:00:31;100235.53;;;27.67;55.47
75936;BME280;64614;32.062;34.834;2023-06-14T00:02:57;100245.38;;;27.68;54.94
75936;BME280;64614;32.062;34.834;2023-06-14T00:05:23;100242.63;;;27.68;55.52
75936;BME280;64614;32.062;34.834;2023-06-14T00:07:49;100232.41;;;27.69;55.23
75936;BME280;64614;32.062;34.834;2023-06-14T00:10:18;100226.50;;;27.71;55.01
75936;BME280;64614;32.062;34.834;2023-06-14T00:12:44;100235.94;;;27.70;55.13
75936;BME280;64614;32.062;34.834;2023-06-14T00:15:10;100231.25;;;27.70;55.22
75936;BME280;64614;32.062;34.834;2023-06-14T00:17:36;100238.38;;;27.71;55.57
75936;BME280;64614;32.062;34.834;2023-06-14T00:20:03;100237.63;;;27.74;55.19
75936;BME280;64614;32.062;34.834;2023-06-14T00:22:32;100230.50;;;27.73;55.43
75936;BME280;64614;32.062;34.834;2023-06-14T00:24:58;100236.03;;;27.73;55.46
75936;BME280;64614;32.062;34.834;2023-06-14T00:27:24;100234.00;;;27.70;55.12
75936;BME280;64614;32.062;34.834;2023-06-14T00:29:50;100233.19;;;27.70;55.07
75936;BME280;64614;32.062;34.834;2023-06-14T00:32:15;100238.28;;;27.67;55.26
75936;BME280;64614;32.062;34.834;2023-06-14T00:34:41;100233.09;;;27.66;55.40
75936;BME280;64614;32.062;34.834;2023-06-14T00:37:07;100237.47;;;27.67;55.45
75936;BME280;64614;32.062;34.834;2023-06-14T00:39:33;100240.59;;;27.65;55.39
75936;BME280;64614;32.062;34.834;2023-06-14T00:41:58;100248.88;;;27.65;55.45
75936;BME280;64614;32.062;34.834;2023-06-14T00:44:24;100255.16;;;27.66;55.16
75936;BME280;64614;32.062;34.834;2023-06-14T00:46:50;100251.97;;;27.64;54.96
75936;BME280;64614;32.062;34.834;2023-06-14T00:49:17;100248.88;;;27.65;55.48
75936;BME280;64614;32.062;34.834;2023-06-14T00:51:43;100253.16;;;27.63;55.48
75936;BME280;64614;32.062;34.834;2023-06-14T00:54:09;100240.94;;;27.64;55.24
75936;BME280;64614;32.062;34.834;2023-06-14T00:56:38;100254.72;;;27.64;55.09
75936;BME280;64614;32.062;34.834;2023-06-14T00:59:04;100242.91;;;27.63;54.99
75936;BME280;64614;32.062;34.834;2023-06-14T01:01:31;100242.91;;;27.63;55.37
75936;BME280;64614;32.062;34.834;2023-06-14T01:03:58;100244.88;;;27.63;55.33
75936;BME280;64614;32.062;34.834;2023-06-14T01:11:58;100266.47;;;27.61;55.50
75936;BME280;64614;32.062;34.834;2023-06-14T01:14:25;100259.34;;;27.60;55.55
75936;BME280;64614;32.062;34.834;2023-06-14T01:16:53;100254.22;;;27.58;55.82
75936;BME280;64614;32.062;34.834;2023-06-14T01:19:20;100248.69;;;27.58;55.21
75936;BME280;64614;32.062;34.834;2023-06-14T01:21:48;100245.13;;;27.58;55.33
75936;BME280;64614;32.062;34.834;2023-06-14T01:24:16;100255.00;;;27.59;55.70
75936;BME280;64614;32.062;34.834;2023-06-14T01:26:45;100248.69;;;27.58;55.30
75936;BME280;64614;32.062;34.834;2023-06-14T01:29:17;100246.72;;;27.59;55.77
75936;BME280;64614;32.062;34.834;2023-06-14T01:31:43;100243.97;;;27.59;55.25
75936;BME280;64614;32.062;34.834;2023-06-14T01:34:09;100245.13;;;27.58;55.82
75936;BME280;64614;32.062;34.834;2023-06-14T01:36:36;100251.44;;;27.58;55.81
75936;BME280;64614;32.062;34.834;2023-06-14T01:39:06;100249.84;;;27.57;55.65
75936;BME280;64614;32.062;34.834;2023-06-14T01:41:33;100255.38;;;27.57;55.58
75936;BME280;64614;32.062;34.834;2023-06-14T01:44:01;100259.28;;;27.56;55.69
75936;BME280;64614;32.062;34.834;2023-06-14T01:46:27;100263.28;;;27.59;55.92
75936;BME280;64614;32.062;34.834;2023-06-14T01:48:53;100264.06;;;27.59;55.85
75936;BME280;64614;32.062;34.834;2023-06-14T01:51:18;100261.31;;;27.59;56.25
75936;BME280;64614;32.062;34.834;2023-06-14T01:53:44;100263.28;;;27.59;55.97
75936;BME280;64614;32.062;34.834;2023-06-14T01:56:10;100262.91;;;27.60;56.10
75936;BME280;64614;32.062;34.834;2023-06-14T01:58:36;100269.25;;;27.61;55.64
75936;BME280;64614;32.062;34.834;2023-06-14T02:01:02;100265.25;;;27.58;55.84
75936;BME280;64614;32.062;34.834;2023-06-14T02:03:27;100260.16;;;27.60;55.89
75936;BME280;64614;32.062;34.834;2023-06-14T02:05:53;100263.28;;;27.59;56.08
75936;BME280;64614;32.062;34.834;2023-06-14T02:08:20;100262.56;;;27.62;56.18
75936;BME280;64614;32.062;34.834;2023-06-14T02:10:46;100268.09;;;27.62;56.02
75936;BME280;64614;32.062;34.834;2023-06-14T02:13:12;100269.25;;;27.61;56.05
75936;BME280;64614;32.062;34.834;2023-06-14T02:15:37;100262.56;;;27.62;55.90
75936;BME280;64614;32.062;34.834;2023-06-14T02:18:03;100269.69;;;27.63;56.36
75936;BME280;64614;32.062;34.834;2023-06-14T02:20:29;100267.72;;;27.63;55.86
75936;BME280;64614;32.062;34.834;2023-06-14T02:22:55;100270.47;;;27.63;56.12
75936;BME280;64614;32.062;34.834;2023-06-14T02:25:21;100268.50;;;27.64;55.85
75936;BME280;64614;32.062;34.834;2023-06-14T02:27:47;100276.38;;;27.62;56.49
75936;BME280;64614;32.062;34.834;2023-06-14T02:30:13;100276.00;;;27.63;56.36
75936;BME280;64614;32.062;34.834;2023-06-14T02:32:38;100273.59;;;27.62;55.87
75936;BME280;64614;32.062;34.834;2023-06-14T02:35:06;100280.28;;;27.61;56.26
75936;BME280;64614;32.062;34.834;2023-06-14T02:37:32;100278.22;;;27.58;56.05
75936;BME280;64614;32.062;34.834;2023-06-14T02:39:58;100283.66;;;27.54;55.68
75936;BME280;64614;32.062;34.834;2023-06-14T02:42:24;100278.03;;;27.50;55.31
75936;BME280;64614;32.062;34.834;2023-06-14T02:44:50;100281.16;;;27.49;55.70
75936;BME280;64614;32.062;34.834;2023-06-14T02:47:19;100286.78;;;27.52;55.51
75936;BME280;64614;32.062;34.834;2023-06-14T02:49:45;100279.56;;;27.48;55.71
75936;BME280;64614;32.062;34.834;2023-06-14T02:52:15;100278.31;;;27.45;55.65
75936;BME280;64614;32.062;34.834;2023-06-14T02:54:41;100288.06;;;27.43;55.53
75936;BME280;64614;32.062;34.834;2023-06-14T02:57:07;100280.13;;;27.41;55.85
75936;BME280;64614;32.062;34.834;2023-06-14T02:59:34;100283.38;;;27.43;55.52
75936;BME280;64614;32.062;34.834;2023-06-14T03:02:00;100275.78;;;27.40;55.98
75936;BME280;64614;32.062;34.834;2023-06-14T03:04:29;100274.16;;;27.39;55.93
75936;BME280;64614;32.062;34.834;2023-06-14T03:09:32;100284.03;;;27.40;55.44
75936;BME280;64614;32.062;34.834;2023-06-14T03:11:57;100295.06;;;27.40;55.60
75936;BME280;64614;32.062;34.834;2023-06-14T03:14:23;100293.47;;;27.39;55.76
75936;BME280;64614;32.062;34.834;2023-06-14T03:16:48;100289.56;;;27.40;55.76
75936;BME280;64614;32.062;34.834;2023-06-14T03:19:15;100287.63;;;27.41;55.43
75936;BME280;64614;32.062;34.834;2023-06-14T03:21:41;100297.03;;;27.40;55.59
75936;BME280;64614;32.062;34.834;2023-06-14T03:24:11;100300.59;;;27.40;55.60
75936;BME280;64614;32.062;34.834;2023-06-14T03:26:36;100306.56;;;27.42;56.03
75936;BME280;64614;32.062;34.834;2023-06-14T03:29:03;100305.44;;;27.43;55.92
75936;BME280;64614;32.062;34.834;2023-06-14T03:31:31;100307.47;;;27.46;55.95
75936;BME280;64614;32.062;34.834;2023-06-14T03:34:04;100310.22;;;27.46;55.48
75936;BME280;64614;32.062;34.834;2023-06-14T03:36:29;100307.94;;;27.48;55.60
75936;BME280;64614;32.062;34.834;2023-06-14T03:41:24;100314.59;;;27.47;56.13
75936;BME280;64614;32.062;34.834;2023-06-14T03:43:51;100317.34;;;27.47;55.92
75936;BME280;64614;32.062;34.834;2023-06-14T03:46:17;100323.22;;;27.46;56.15
75936;BME280;64614;32.062;34.834;2023-06-14T03:51:43;100332.28;;;27.46;55.55
75936;BME280;64614;32.062;34.834;2023-06-14T03:57:34;100323.72;;;27.35;55.40
75936;BME280;64614;32.062;34.834;2023-06-14T04:05:10;100331.97;;;27.35;55.43
75936;BME280;64614;32.062;34.834;2023-06-14T04:07:36;100350.13;;;27.36;55.78
75936;BME280;64614;32.062;34.834;2023-06-14T04:10:14;100342.22;;;27.35;55.51
75936;BME280;64614;32.062;34.834;2023-06-14T04:12:41;100354.84;;;27.36;55.71
75936;BME280;64614;32.062;34.834;2023-06-14T04:15:07;100360.38;;;27.36;55.54
75936;BME280;64614;32.062;34.834;2023-06-14T04:20:09;100364.28;;;27.35;55.41
75936;BME280;64614;32.062;34.834;2023-06-14T04:22:36;100364.75;;;27.37;55.21
75936;BME280;64614;32.062;34.834;2023-06-14T04:25:02;100361.16;;;27.36;55.50
75936;BME280;64614;32.062;34.834;2023-06-14T04:27:28;100360.38;;;27.36;55.69
75936;BME280;64614;32.062;34.834;2023-06-14T04:29:56;100361.53;;;27.35;55.15
75936;BME280;64614;32.062;34.834;2023-06-14T04:32:27;100350.81;;;27.33;55.15
75936;BME280;64614;32.062;34.834;2023-06-14T04:34:57;100362.69;;;27.34;55.71
75936;BME280;64614;32.062;34.834;2023-06-14T04:37:24;100365.88;;;27.36;55.69
75936;BME280;64614;32.062;34.834;2023-06-14T04:39:54;100372.56;;;27.35;55.06
75936;BME280;64614;32.062;34.834;2023-06-14T04:42:21;100376.09;;;27.35;55.21
75936;BME280;64614;32.062;34.834;2023-06-14T04:44:51;100383.22;;;27.36;55.49
75936;BME280;64614;32.062;34.834;2023-06-14T04:47:17;100382.44;;;27.36;55.19
75936;BME280;64614;32.062;34.834;2023-06-14T04:49:42;100381.97;;;27.34;55.48
75936;BME280;64614;32.062;34.834;2023-06-14T04:54:43;100386.56;;;27.30;55.38
75936;BME280;64614;32.062;34.834;2023-06-14T04:57:18;100387.72;;;27.29;55.54
75936;BME280;64614;32.062;34.834;2023-06-14T05:04:48;100403.47;;;27.28;55.93
75936;BME280;64614;32.062;34.834;2023-06-14T05:07:14;100401.97;;;27.31;55.78
75936;BME280;64614;32.062;34.834;2023-06-14T05:09:40;100403.13;;;27.30;55.74
75936;BME280;64614;32.062;34.834;2023-06-14T05:14:42;100399.31;;;27.34;55.83
75936;BME280;64614;32.062;34.834;2023-06-14T05:17:07;100401.28;;;27.34;55.68
75936;BME280;64614;32.062;34.834;2023-06-14T05:22:29;100400.00;;;27.44;55.37
75936;BME280;64614;32.062;34.834;2023-06-14T05:30:06;100399.41;;;27.50;55.36
75936;BME280;64614;32.062;34.834;2023-06-14T05:34:59;100388.47;;;27.54;55.49
75936;BME280;64614;32.062;34.834;2023-06-14T05:40:54;100391.66;;;27.56;55.34
75936;BME280;64614;32.062;34.834;2023-06-14T05:43:19;100398.44;;;27.59;55.24
75936;BME280;64614;32.062;34.834;2023-06-14T05:46:10;100400.50;;;27.62;55.65
75936;BME280;64614;32.062;34.834;2023-06-14T05:48:36;100402.88;;;27.63;55.80
75936;BME280;64614;32.062;34.834;2023-06-14T05:51:02;100405.28;;;27.65;55.34
75936;BME280;64614;32.062;34.834;2023-06-14T05:53:28;100404.97;;;27.66;55.67
75936;BME280;64614;32.062;34.834;2023-06-14T05:55:53;100405.38;;;27.68;55.89
75936;BME280;64614;32.062;34.834;2023-06-14T06:00:55;100412.97;;;27.72;55.72
75936;BME280;64614;32.062;34.834;2023-06-14T06:13:30;100416.72;;;27.79;55.21
75936;BME280;64614;32.062;34.834;2023-06-14T06:15:56;100417.50;;;27.80;55.22
75936;BME280;64614;32.062;34.834;2023-06-14T06:18:22;100417.16;;;27.81;55.58
75936;BME280;64614;32.062;34.834;2023-06-14T06:23:22;100421.53;;;27.82;55.37
75936;BME280;64614;32.062;34.834;2023-06-14T06:28:24;100418.75;;;27.82;55.43
75936;BME280;64614;32.062;34.834;2023-06-14T06:30:49;100422.78;;;27.85;55.57
75936;BME280;64614;32.062;34.834;2023-06-14T06:33:28;100418.34;;;27.80;55.49
75936;BME280;64614;32.062;34.834;2023-06-14T06:35:55;100425.19;;;27.87;55.21
75936;BME280;64614;32.062;34.834;2023-06-14T06:40:55;100423.66;;;27.89;55.17
75936;BME280;64614;32.062;34.834;2023-06-14T06:43:22;100426.06;;;27.91;55.26
75936;BME280;64614;32.062;34.834;2023-06-14T06:45:47;100424.13;;;27.91;54.76
75936;BME280;64614;32.062;34.834;2023-06-14T06:48:13;100417.09;;;27.94;55.13
75936;BME280;64614;32.062;34.834;2023-06-14T06:50:39;100425.81;;;27.96;55.41
75936;BME280;64614;32.062;34.834;2023-06-14T06:59:03;100414.06;;;27.99;54.92
75936;BME280;64614;32.062;34.834;2023-06-14T07:06:39;100425.31;;;28.06;54.84
75936;BME280;64614;32.062;34.834;2023-06-14T07:09:05;100413.13;;;28.07;55.05
75936;BME280;64614;32.062;34.834;2023-06-14T07:11:34;100407.13;;;28.05;54.69
75936;BME280;64614;32.062;34.834;2023-06-14T07:14:01;100409.56;;;28.07;55.20
75936;BME280;64614;32.062;34.834;2023-06-14T07:16:26;100414.25;;;28.06;55.01
75936;BME280;64614;32.062;34.834;2023-06-14T07:18:52;100411.63;;;28.10;55.28
75936;BME280;64614;32.062;34.834;2023-06-14T07:21:17;100417.13;;;28.10;55.36
75936;BME280;64614;32.062;34.834;2023-06-14T07:23:43;100424.00;;;28.16;54.79
75936;BME280;64614;32.062;34.834;2023-06-14T07:26:09;100415.25;;;28.14;54.71
75936;BME280;64614;32.062;34.834;2023-06-14T07:28:35;100412.84;;;28.12;54.93
75936;BME280;64614;32.062;34.834;2023-06-14T07:31:01;100418.00;;;28.14;55.18
75936;BME280;64614;32.062;34.834;2023-06-14T07:33:28;100418.00;;;28.14;55.20
75936;BME280;64614;32.062;34.834;2023-06-14T07:35:54;100426.75;;;28.16;54.67
75936;BME280;64614;32.062;34.834;2023-06-14T07:38:19;100417.69;;;28.16;55.16
75936;BME280;64614;32.062;34.834;2023-06-14T07:40:45;100416.06;;;28.14;54.71
75936;BME280;64614;32.062;34.834;2023-06-14T07:43:11;100398.69;;;28.14;54.82
75936;BME280;64614;32.062;34.834;2023-06-14T07:45:37;100418.38;;;28.12;54.86
75936;BME280;64614;32.062;34.834;2023-06-14T07:48:03;100421.84;;;28.09;54.13
75936;BME280;64614;32.062;34.834;2023-06-14T07:50:28;100420.59;;;28.07;54.52
75936;BME280;64614;32.062;34.834;2023-06-14T07:52:54;100416.56;;;28.04;54.71
75936;BME280;64614;32.062;34.834;2023-06-14T07:55:20;100420.84;;;28.02;54.15
75936;BME280;64614;32.062;34.834;2023-06-14T07:57:45;100429.13;;;28.02;54.22
75936;BME280;64614;32.062;34.834;2023-06-14T08:00:12;100419.25;;;28.01;54.58
75936;BME280;64614;32.062;34.834;2023-06-14T08:02:43;100431.34;;;27.96;53.95
75936;BME280;64614;32.062;34.834;2023-06-14T08:05:10;100436.41;;;27.94;54.50
75936;BME280;64614;32.062;34.834;2023-06-14T08:07:37;100430.44;;;27.92;54.34
75936;BME280;64614;32.062;34.834;2023-06-14T08:10:04;100433.09;;;27.88;54.20
75936;BME280;64614;32.062;34.834;2023-06-14T08:13:10;100441.56;;;27.95;54.41
75936;BME280;64614;32.062;34.834;2023-06-14T08:29:14;100443.69;;;27.86;54.42
75936;BME280;64614;32.062;34.834;2023-06-14T08:47:25;100455.69;;;27.78;54.21
75936;BME280;64614;32.062;34.834;2023-06-14T09:08:16;100468.03;;;27.68;54.27
75936;BME280;64614;32.062;34.834;2023-06-14T09:10:44;100471.97;;;27.67;54.31
75936;BME280;64614;32.062;34.834;2023-06-14T09:15:35;100463.69;;;27.67;54.24
75936;BME280;64614;32.062;34.834;2023-06-14T09:18:01;100459.41;;;27.70;54.36
75936;BME280;64614;32.062;34.834;2023-06-14T09:20:30;100463.78;;;27.71;54.53
75936;BME280;64614;32.062;34.834;2023-06-14T09:22:56;100466.19;;;27.72;54.72
75936;BME280;64614;32.062;34.834;2023-06-14T09:25:22;100472.97;;;27.75;54.19
75936;BME280;64614;32.062;34.834;2023-06-14T09:30:51;100456.06;;;27.76;54.77
75936;BME280;64614;32.062;34.834;2023-06-14T09:46:13;100455.59;;;27.74;53.53
75936;BME280;64614;32.062;34.834;2023-06-14T09:59:04;100455.66;;;27.62;55.03
75936;BME280;64614;32.062;34.834;2023-06-14T10:13:13;100457.94;;;27.72;54.84
75936;BME280;64614;32.062;34.834;2023-06-14T10:15:57;100459.06;;;27.71;55.11
75936;BME280;64614;32.062;34.834;2023-06-14T10:28:56;100453.28;;;27.76;54.74
75936;BME280;64614;32.062;34.834;2023-06-14T10:39:15;100430.53;;;27.79;54.82
75936;BME280;64614;32.062;34.834;2023-06-14T11:02:33;100447.97;;;27.83;55.09
75936;BME280;64614;32.062;34.834;2023-06-14T11:05:14;100439.34;;;27.85;54.95
75936;BME280;64614;32.062;34.834;2023-06-14T11:13:00;100441.75;;;27.87;54.81
75936;BME280;64614;32.062;34.834;2023-06-14T11:23:14;100443.44;;;27.91;54.73
75936;BME280;64614;32.062;34.834;2023-06-14T11:28:15;100450.22;;;27.94;54.53
75936;BME280;64614;32.062;34.834;2023-06-14T11:30:41;100451.03;;;27.94;54.33
75936;BME280;64614;32.062;34.834;2023-06-14T11:33:09;100446.28;;;27.95;54.81
75936;BME280;64614;32.062;34.834;2023-06-14T11:35:36;100462.84;;;27.95;54.69
75936;BME280;64614;32.062;34.834;2023-06-14T11:38:02;100456.53;;;27.94;55.07
75936;BME280;64614;32.062;34.834;2023-06-14T11:40:27;100458.84;;;27.92;54.95
75936;BME280;64614;32.062;34.834;2023-06-14T11:43:01;100455.28;;;27.92;54.69
75936;BME280;64614;32.062;34.834;2023-06-14T11:48:03;100450.91;;;27.91;55.15
75936;BME280;64614;32.062;34.834;2023-06-14T11:50:28;100451.72;;;27.91;54.57
75936;BME280;64614;32.062;34.834;2023-06-14T11:58:04;100452.50;;;27.92;54.66
75936;BME280;64614;32.062;34.834;2023-06-14T12:05:41;100466.31;;;27.92;55.07
75936;BME280;64614;32.062;34.834;2023-06-14T12:10:41;100464.88;;;27.82;54.16
75936;BME280;64614;32.062;34.834;2023-06-14T12:13:09;100463.97;;;27.78;54.52
75936;BME280;64614;32.062;34.834;2023-06-14T12:15:35;100468.16;;;27.72;54.55
75936;BME280;64614;32.062;34.834;2023-06-14T12:30:00;100457.09;;;27.72;55.06
75936;BME280;64614;32.062;34.834;2023-06-14T12:32:26;100461.13;;;27.74;54.94
75936;BME280;64614;32.062;34.834;2023-06-14T12:34:51;100462.72;;;27.75;55.12
75936;BME280;64614;32.062;34.834;2023-06-14T12:37:17;100458.81;;;27.76;55.26
75936;BME280;64614;32.062;34.834;2023-06-14T12:39:46;100440.31;;;27.77;55.42
75936;BME280;64614;32.062;34.834;2023-06-14T12:42:15;100432.38;;;27.75;55.21
75936;BME280;64614;32.062;34.834;2023-06-14T12:44:40;100445.00;;;27.76;55.07
75936;BME280;64614;32.062;34.834;2023-06-14T12:47:08;100445.84;;;27.77;54.43
75936;BME280;64614;32.062;34.834;2023-06-14T12:49:33;100453.28;;;27.76;54.14
75936;BME280;64614;32.062;34.834;2023-06-14T12:51:59;100446.88;;;27.72;54.30
75936;BME280;64614;32.062;34.834;2023-06-14T12:56:59;100438.06;;;27.66;54.52
75936;BME280;64614;32.062;34.834;2023-06-14T12:59:25;100452.19;;;27.65;53.99
75936;BME280;64614;32.062;34.834;2023-06-14T13:01:52;100461.19;;;27.62;54.00
75936;BME280;64614;32.062;34.834;2023-06-14T13:04:18;100454.06;;;27.61;53.95
75936;BME280;64614;32.062;34.834;2023-06-14T13:06:44;100457.97;;;27.60;54.10
75936;BME280;64614;32.062;34.834;2023-06-14T13:09:11;100457.97;;;27.60;54.04
75936;BME280;64614;32.062;34.834;2023-06-14T13:11:38;100453.97;;;27.57;54.49
75936;BME280;64614;32.062;34.834;2023-06-14T13:14:03;100459.47;;;27.57;54.12
75936;BME280;64614;32.062;34.834;2023-06-14T13:16:29;100470.16;;;27.59;54.30
75936;BME280;64614;32.062;34.834;2023-06-14T13:18:55;100468.19;;;27.59;54.56
75936;BME280;64614;32.062;34.834;2023-06-14T13:21:20;100467.03;;;27.60;54.41
75936;BME280;64614;32.062;34.834;2023-06-14T13:29:40;100464.28;;;27.60;53.77
75936;BME280;64614;32.062;34.834;2023-06-14T13:32:06;100460.03;;;27.63;53.78
75936;BME280;64614;32.062;34.834;2023-06-14T13:34:32;100461.97;;;27.62;53.86
75936;BME280;64614;32.062;34.834;2023-06-14T14:05:35;100456.56;;;27.66;54.28
75936;BME280;64614;32.062;34.834;2023-06-14T14:10:35;100465.97;;;27.65;54.20
75936;BME280;64614;32.062;34.834;2023-06-14T14:20:40;100462.06;;;27.66;54.43
75936;BME280;64614;32.062;34.834;2023-06-14T14:23:05;100457.69;;;27.65;53.97
75936;BME280;64614;32.062;34.834;2023-06-14T14:25:31;100453.00;;;27.65;54.03
75936;BME280;64614;32.062;34.834;2023-06-14T14:27:57;100455.75;;;27.65;54.09
75936;BME280;64614;32.062;34.834;2023-06-14T14:30:23;100447.81;;;27.64;54.07
75936;BME280;64614;32.062;34.834;2023-06-14T14:32:49;100454.53;;;27.63;54.44
75936;BME280;64614;32.062;34.834;2023-06-14T14:37:54;100460.38;;;27.61;53.93
75936;BME280;64614;32.062;34.834;2023-06-14T14:42:55;100460.72;;;27.60;54.04
75936;BME280;64614;32.062;34.834;2023-06-14T14:45:20;100473.69;;;27.59;54.05
75936;BME280;64614;32.062;34.834;2023-06-14T14:47:46;100467.41;;;27.59;54.00
75936;BME280;64614;32.062;34.834;2023-06-14T14:50:11;100462.56;;;27.56;54.10
75936;BME280;64614;32.062;34.834;2023-06-14T14:52:37;100482.34;;;27.58;53.98
75936;BME280;64614;32.062;34.834;2023-06-14T14:55:03;100482.69;;;27.56;54.01
75936;BME280;64614;32.062;34.834;2023-06-14T14:57:29;100477.19;;;27.56;53.88
75936;BME280;64614;32.062;34.834;2023-06-14T15:02:30;100476.72;;;27.54;53.98
75936;BME280;64614;32.062;34.834;2023-06-14T15:17:46;100484.53;;;27.52;54.09
75936;BME280;64614;32.062;34.834;2023-06-14T15:22:40;100481.69;;;27.48;54.15
75936;BME280;64614;32.062;34.834;2023-06-14T15:25:06;100494.31;;;27.49;54.05
75936;BME280;64614;32.062;34.834;2023-06-14T15:27:32;100491.09;;;27.47;54.11
75936;BME280;64614;32.062;34.834;2023-06-14T15:29:58;100495.00;;;27.46;54.28
75936;BME280;64614;32.062;34.834;2023-06-14T15:35:27;100504.00;;;27.43;54.54
75936;BME280;64614;32.062;34.834;2023-06-14T15:40:28;100509.72;;;27.38;54.63
75936;BME280;64614;32.062;34.834;2023-06-14T15:42:54;100510.06;;;27.36;54.80
75936;BME280;64614;32.062;34.834;2023-06-14T15:45:20;100517.09;;;27.34;54.21
75936;BME280;64614;32.062;34.834;2023-06-14T15:47:45;100504.34;;;27.29;54.69
75936;BME280;64614;32.062;34.834;2023-06-14T15:50:11;100509.97;;;27.33;54.69
75936;BME280;64614;32.062;34.834;2023-06-14T15:52:37;100506.75;;;27.31;54.64
75936;BME280;64614;32.062;34.834;2023-06-14T15:57:30;100502.06;;;27.31;54.09
75936;BME280;64614;32.062;34.834;2023-06-14T15:59:56;100505.84;;;27.27;54.70
75936;BME280;64614;32.062;34.834;2023-06-14T16:02:21;100512.38;;;27.34;54.37
75936;BME280;64614;32.062;34.834;2023-06-14T16:04:47;100508.00;;;27.33;54.22
75936;BME280;64614;32.062;34.834;2023-06-14T16:07:13;100506.53;;;27.36;54.11
75936;BME280;64614;32.062;34.834;2023-06-14T16:09:39;100512.03;;;27.36;53.99
75936;BME280;64614;32.062;34.834;2023-06-14T16:12:06;100510.44;;;27.35;54.59
75936;BME280;64614;32.062;34.834;2023-06-14T16:14:31;100515.47;;;27.33;54.67
75936;BME280;64614;32.062;34.834;2023-06-14T16:16:57;100524.09;;;27.31;54.19
75936;BME280;64614;32.062;34.834;2023-06-14T16:19:23;100509.84;;;27.29;54.21
75936;BME280;64614;32.062;34.834;2023-06-14T16:21:50;100523.06;;;27.24;54.60
75936;BME280;64614;32.062;34.834;2023-06-14T16:24:15;100526.88;;;27.19;54.69
75936;BME280;64614;32.062;34.834;2023-06-14T16:26:41;100537.13;;;27.18;54.51
75936;BME280;64614;32.062;34.834;2023-06-14T16:29:08;100537.34;;;27.13;54.63
75936;BME280;64614;32.062;34.834;2023-06-14T16:31:34;100537.69;;;27.12;55.05
75936;BME280;64614;32.062;34.834;2023-06-14T16:34:00;100540.66;;;27.06;54.51
75936;BME280;64614;32.062;34.834;2023-06-14T16:36:26;100554.13;;;27.08;55.02
75936;BME280;64614;32.062;34.834;2023-06-14T16:39:00;100546.53;;;27.05;54.43
75936;BME280;64614;32.062;34.834;2023-06-14T16:41:38;100548.81;;;27.03;54.67
75936;BME280;64614;32.062;34.834;2023-06-14T16:44:04;100548.59;;;27.08;54.63
75936;BME280;64614;32.062;34.834;2023-06-14T16:46:31;100547.34;;;27.05;54.85
75936;BME280;64614;32.062;34.834;2023-06-14T16:48:58;100547.88;;;27.11;54.87
75936;BME280;64614;32.062;34.834;2023-06-14T16:51:23;100555.84;;;27.13;54.41
75936;BME280;64614;32.062;34.834;2023-06-14T16:53:49;100553.88;;;27.13;54.45
75936;BME280;64614;32.062;34.834;2023-06-14T16:56:17;100539.63;;;27.11;54.78
75936;BME280;64614;32.062;34.834;2023-06-14T16:58:43;100540.91;;;27.14;54.37
75936;BME280;64614;32.062;34.834;2023-06-14T17:01:08;100558.34;;;27.18;54.49
75936;BME280;64614;32.062;34.834;2023-06-14T17:03:35;100544.09;;;27.16;54.65
75936;BME280;64614;32.062;34.834;2023-06-14T17:06:01;100567.97;;;27.24;54.39
75936;BME280;64614;32.062;34.834;2023-06-14T17:08:26;100563.28;;;27.25;54.52
75936;BME280;64614;32.062;34.834;2023-06-14T17:10:53;100557.78;;;27.25;54.75
75936;BME280;64614;32.062;34.834;2023-06-14T17:13:19;100560.53;;;27.25;54.32
75936;BME280;64614;32.062;34.834;2023-06-14T17:15:45;100553.88;;;27.26;54.66
75936;BME280;64614;32.062;34.834;2023-06-14T17:18:11;100565.38;;;27.28;54.62
75936;BME280;64614;32.062;34.834;2023-06-14T17:20:37;100574.06;;;27.30;54.47
75936;BME280;64614;32.062;34.834;2023-06-14T17:23:03;100569.38;;;27.30;54.46
75936;BME280;64614;32.062;34.834;2023-06-14T17:25:29;100570.63;;;27.33;54.24
75936;BME280;64614;32.062;34.834;2023-06-14T17:27:55;100575.00;;;27.34;54.12
75936;BME280;64614;32.062;34.834;2023-06-14T17:30:21;100581.41;;;27.38;54.18
75936;BME280;64614;32.062;34.834;2023-06-14T17:32:46;100590.84;;;27.37;54.48
75936;BME280;64614;32.062;34.834;2023-06-14T17:35:12;100598.78;;;27.39;54.19
75936;BME280;64614;32.062;34.834;2023-06-14T17:37:40;100604.75;;;27.41;54.60
75936;BME280;64614;32.062;34.834;2023-06-14T17:40:06;100607.97;;;27.43;54.13
75936;BME280;64614;32.062;34.834;2023-06-14T17:42:32;100611.56;;;27.43;54.54
75936;BME280;64614;32.062;34.834;2023-06-14T17:44:58;100607.84;;;27.39;54.87
75936;BME280;64614;32.062;34.834;2023-06-14T17:47:25;100610.84;;;27.34;54.47
75936;BME280;64614;32.062;34.834;2023-06-14T17:52:21;100610.03;;;27.33;54.31
75936;BME280;64614;32.062;34.834;2023-06-14T17:54:47;100607.72;;;27.35;54.50
75936;BME280;64614;32.062;34.834;2023-06-14T17:57:13;100624.28;;;27.35;54.89
75936;BME280;64614;32.062;34.834;2023-06-14T17:59:41;100623.13;;;27.36;54.50
75936;BME280;64614;32.062;34.834;2023-06-14T18:02:06;100619.56;;;27.36;54.86
75936;BME280;64614;32.062;34.834;2023-06-14T18:04:33;100629.09;;;27.39;54.85
75936;BME280;64614;32.062;34.834;2023-06-14T18:06:59;100640.50;;;27.37;54.85
75936;BME280;64614;32.062;34.834;2023-06-14T18:09:27;100645.66;;;27.39;54.65